CGGPG KGSO-KAVL
Flight info
| Callsign | CGGPG |
|---|---|
| Flight time | N/A |
| Altitude | 8000 |
| Route | DIRECT |
| Aircraft | B58/L-VGD/C |
Departure
| Time | N/A |
|---|---|
| Airport | Piedmont Triad International Airport (KGSO) |
Arrival
| Time | 2026-04-19 22:01 |
|---|---|
| Airport | Asheville Regional Airport (KAVL) |
| Time | Latitude | Longitude | Altitude | Speed | Heading |
|---|---|---|---|---|---|
| 2026-04-19 21:29 | 35.74571 | -81.33903 | 8001 ft | 169 kts | 253° |
| 2026-04-19 21:29 | 35.74223 | -81.35289 | 8001 ft | 169 kts | 253° |
| 2026-04-19 21:30 | 35.73874 | -81.36675 | 8003 ft | 170 kts | 253° |
| 2026-04-19 21:30 | 35.73524 | -81.38064 | 8000 ft | 170 kts | 253° |
| 2026-04-19 21:30 | 35.73175 | -81.39454 | 8001 ft | 170 kts | 253° |
| 2026-04-19 21:30 | 35.72825 | -81.40841 | 8000 ft | 170 kts | 253° |
| 2026-04-19 21:31 | 35.72474 | -81.42230 | 8001 ft | 170 kts | 253° |
| 2026-04-19 21:31 | 35.72124 | -81.43617 | 7999 ft | 170 kts | 253° |
| 2026-04-19 21:31 | 35.71774 | -81.45004 | 7999 ft | 170 kts | 253° |
| 2026-04-19 21:31 | 35.71425 | -81.46389 | 7999 ft | 169 kts | 253° |
| 2026-04-19 21:32 | 35.71076 | -81.47772 | 7999 ft | 170 kts | 253° |
| 2026-04-19 21:32 | 35.70724 | -81.49161 | 8000 ft | 170 kts | 253° |
| 2026-04-19 21:32 | 35.70372 | -81.50551 | 7996 ft | 170 kts | 253° |
| 2026-04-19 21:32 | 35.70021 | -81.51941 | 7999 ft | 170 kts | 253° |
| 2026-04-19 21:33 | 35.69668 | -81.53335 | 8004 ft | 171 kts | 253° |
| 2026-04-19 21:33 | 35.69313 | -81.54732 | 8004 ft | 171 kts | 253° |
| 2026-04-19 21:33 | 35.68958 | -81.56132 | 7999 ft | 171 kts | 253° |
| 2026-04-19 21:33 | 35.68609 | -81.57513 | 8000 ft | 171 kts | 253° |
| 2026-04-19 21:34 | 35.68255 | -81.58911 | 8001 ft | 171 kts | 253° |
| 2026-04-19 21:34 | 35.67899 | -81.60307 | 8000 ft | 171 kts | 253° |
| 2026-04-19 21:34 | 35.67540 | -81.61723 | 7999 ft | 171 kts | 253° |
| 2026-04-19 21:34 | 35.67185 | -81.63119 | 7998 ft | 171 kts | 253° |
| 2026-04-19 21:35 | 35.66835 | -81.64495 | 8001 ft | 171 kts | 253° |
| 2026-04-19 21:35 | 35.66479 | -81.65890 | 8001 ft | 171 kts | 253° |
| 2026-04-19 21:35 | 35.66124 | -81.67287 | 8002 ft | 171 kts | 253° |
| 2026-04-19 21:35 | 35.65767 | -81.68686 | 8000 ft | 172 kts | 253° |
| 2026-04-19 21:36 | 35.65412 | -81.70084 | 7997 ft | 171 kts | 253° |
| 2026-04-19 21:36 | 35.65056 | -81.71478 | 8006 ft | 171 kts | 253° |
| 2026-04-19 21:36 | 35.64699 | -81.72876 | 8005 ft | 172 kts | 253° |
| 2026-04-19 21:36 | 35.64341 | -81.74278 | 8003 ft | 172 kts | 253° |
| 2026-04-19 21:37 | 35.63983 | -81.75680 | 7998 ft | 172 kts | 253° |
| 2026-04-19 21:37 | 35.63625 | -81.77081 | 7998 ft | 172 kts | 253° |
| 2026-04-19 21:37 | 35.63267 | -81.78480 | 7999 ft | 171 kts | 253° |
| 2026-04-19 21:37 | 35.62910 | -81.79877 | 8002 ft | 172 kts | 253° |
| 2026-04-19 21:38 | 35.62552 | -81.81275 | 7998 ft | 171 kts | 253° |
| 2026-04-19 21:38 | 35.62194 | -81.82672 | 8000 ft | 171 kts | 253° |
| 2026-04-19 21:38 | 35.61836 | -81.84069 | 8002 ft | 172 kts | 253° |
| 2026-04-19 21:38 | 35.61477 | -81.85469 | 8003 ft | 172 kts | 253° |
| 2026-04-19 21:39 | 35.61118 | -81.86869 | 8000 ft | 172 kts | 253° |
| 2026-04-19 21:39 | 35.60758 | -81.88270 | 7999 ft | 172 kts | 253° |
| 2026-04-19 21:39 | 35.60399 | -81.89669 | 7999 ft | 172 kts | 253° |
| 2026-04-19 21:39 | 35.60040 | -81.91068 | 7998 ft | 171 kts | 253° |
| 2026-04-19 21:40 | 35.59326 | -81.93844 | 7997 ft | 165 kts | 253° |
| 2026-04-19 21:40 | 35.58987 | -81.95158 | 7997 ft | 158 kts | 253° |
| 2026-04-19 21:40 | 35.58662 | -81.96414 | 7991 ft | 151 kts | 253° |
| 2026-04-19 21:41 | 35.58349 | -81.97626 | 8000 ft | 147 kts | 253° |
| 2026-04-19 21:41 | 35.58042 | -81.98814 | 8000 ft | 145 kts | 253° |
| 2026-04-19 21:41 | 35.57740 | -81.99985 | 8001 ft | 143 kts | 253° |
| 2026-04-19 21:41 | 35.57441 | -82.01143 | 8003 ft | 142 kts | 253° |
| 2026-04-19 21:42 | 35.57144 | -82.02297 | 8005 ft | 142 kts | 253° |
| 2026-04-19 21:42 | 35.56850 | -82.03434 | 8003 ft | 141 kts | 253° |
| 2026-04-19 21:42 | 35.56554 | -82.04583 | 8003 ft | 141 kts | 253° |
| 2026-04-19 21:42 | 35.56256 | -82.05732 | 8002 ft | 141 kts | 253° |
| 2026-04-19 21:43 | 35.55960 | -82.06878 | 7999 ft | 141 kts | 253° |
| 2026-04-19 21:43 | 35.55650 | -82.08010 | 7997 ft | 140 kts | 245° |
| 2026-04-19 21:43 | 35.54968 | -82.08848 | 8004 ft | 142 kts | 214° |
| 2026-04-19 21:43 | 35.54113 | -82.09461 | 8001 ft | 143 kts | 212° |
| 2026-04-19 21:44 | 35.53247 | -82.10066 | 8004 ft | 144 kts | 212° |
| 2026-04-19 21:44 | 35.52382 | -82.10684 | 8003 ft | 144 kts | 213° |
| 2026-04-19 21:44 | 35.51547 | -82.11287 | 8031 ft | 144 kts | 213° |
| 2026-04-19 21:44 | 35.50644 | -82.11954 | 7824 ft | 157 kts | 213° |
| 2026-04-19 21:45 | 35.49695 | -82.12660 | 7656 ft | 162 kts | 213° |
| 2026-04-19 21:45 | 35.48724 | -82.13383 | 7493 ft | 164 kts | 213° |
| 2026-04-19 21:45 | 35.47745 | -82.14111 | 7327 ft | 165 kts | 213° |
| 2026-04-19 21:45 | 35.46761 | -82.14844 | 7160 ft | 166 kts | 213° |
| 2026-04-19 21:46 | 35.45774 | -82.15576 | 6983 ft | 166 kts | 213° |
| 2026-04-19 21:46 | 35.44787 | -82.16307 | 6813 ft | 166 kts | 213° |
| 2026-04-19 21:46 | 35.43799 | -82.17040 | 6653 ft | 166 kts | 213° |
| 2026-04-19 21:46 | 35.42811 | -82.17774 | 6505 ft | 166 kts | 213° |
| 2026-04-19 21:47 | 35.41825 | -82.18506 | 6344 ft | 166 kts | 213° |
| 2026-04-19 21:47 | 35.40843 | -82.19235 | 6229 ft | 163 kts | 213° |
| 2026-04-19 21:47 | 35.39895 | -82.19937 | 6212 ft | 156 kts | 214° |
| 2026-04-19 21:47 | 35.38980 | -82.20616 | 6205 ft | 152 kts | 214° |
| 2026-04-19 21:48 | 35.38088 | -82.21276 | 6201 ft | 148 kts | 214° |
| 2026-04-19 21:48 | 35.37215 | -82.21922 | 6199 ft | 146 kts | 213° |
| 2026-04-19 21:48 | 35.36364 | -82.22553 | 6199 ft | 144 kts | 214° |
| 2026-04-19 21:48 | 35.35512 | -82.23186 | 6198 ft | 143 kts | 214° |
| 2026-04-19 21:49 | 35.34666 | -82.23812 | 6200 ft | 142 kts | 214° |
| 2026-04-19 21:49 | 35.33822 | -82.24439 | 6204 ft | 142 kts | 214° |
| 2026-04-19 21:49 | 35.32975 | -82.25068 | 6209 ft | 143 kts | 214° |
| 2026-04-19 21:49 | 35.32122 | -82.25699 | 6204 ft | 143 kts | 214° |
| 2026-04-19 21:50 | 35.31269 | -82.26331 | 6200 ft | 144 kts | 214° |
| 2026-04-19 21:50 | 35.30414 | -82.26963 | 6201 ft | 143 kts | 213° |
| 2026-04-19 21:50 | 35.29562 | -82.27594 | 6202 ft | 143 kts | 213° |
| 2026-04-19 21:50 | 35.28707 | -82.28226 | 6206 ft | 144 kts | 214° |
| 2026-04-19 21:51 | 35.27850 | -82.28860 | 6205 ft | 144 kts | 214° |
| 2026-04-19 21:51 | 35.26990 | -82.29498 | 6201 ft | 145 kts | 214° |
| 2026-04-19 21:51 | 35.26248 | -82.30291 | 6200 ft | 141 kts | 243° |
| 2026-04-19 21:51 | 35.25913 | -82.31412 | 6205 ft | 141 kts | 252° |
| 2026-04-19 21:52 | 35.25576 | -82.32540 | 6208 ft | 142 kts | 250° |
| 2026-04-19 21:52 | 35.25227 | -82.33672 | 6204 ft | 143 kts | 250° |
| 2026-04-19 21:52 | 35.24880 | -82.34809 | 6198 ft | 143 kts | 250° |
| 2026-04-19 21:52 | 35.24539 | -82.35943 | 6195 ft | 142 kts | 251° |
| 2026-04-19 21:53 | 35.24200 | -82.37073 | 6194 ft | 141 kts | 251° |
| 2026-04-19 21:53 | 35.23865 | -82.38193 | 6187 ft | 138 kts | 251° |
| 2026-04-19 21:53 | 35.23541 | -82.39269 | 6193 ft | 132 kts | 250° |
| 2026-04-19 21:53 | 35.23229 | -82.40309 | 6189 ft | 128 kts | 251° |
| 2026-04-19 21:54 | 35.23028 | -82.40980 | 6195 ft | 126 kts | 251° |
| 2026-04-19 21:54 | 35.22725 | -82.41979 | 6200 ft | 124 kts | 251° |
| 2026-04-19 21:54 | 35.22346 | -82.43290 | 6200 ft | 123 kts | 259° |
| 2026-04-19 21:54 | 35.22452 | -82.44297 | 6204 ft | 122 kts | 297° |
| 2026-04-19 21:55 | 35.23063 | -82.45002 | 6202 ft | 124 kts | 333° |
| 2026-04-19 21:55 | 35.23880 | -82.45363 | 6205 ft | 125 kts | 336° |
| 2026-04-19 21:55 | 35.24438 | -82.45617 | 6128 ft | 131 kts | 335° |
| 2026-04-19 21:55 | 35.25349 | -82.46038 | 5804 ft | 143 kts | 336° |
| 2026-04-19 21:56 | 35.26253 | -82.46442 | 5605 ft | 138 kts | 337° |
| 2026-04-19 21:56 | 35.27156 | -82.46843 | 5399 ft | 134 kts | 337° |
| 2026-04-19 21:56 | 35.28031 | -82.47232 | 5211 ft | 133 kts | 337° |
| 2026-04-19 21:56 | 35.28896 | -82.47616 | 5028 ft | 132 kts | 336° |
| 2026-04-19 21:57 | 35.29755 | -82.47998 | 4845 ft | 131 kts | 336° |
| 2026-04-19 21:57 | 35.30597 | -82.48373 | 4666 ft | 130 kts | 336° |
| 2026-04-19 21:57 | 35.31445 | -82.48753 | 4487 ft | 130 kts | 336° |
| 2026-04-19 21:57 | 35.32293 | -82.49132 | 4318 ft | 130 kts | 337° |
| 2026-04-19 21:58 | 35.33145 | -82.49513 | 4137 ft | 131 kts | 336° |
| 2026-04-19 21:58 | 35.33995 | -82.49893 | 3962 ft | 129 kts | 336° |
| 2026-04-19 21:58 | 35.34824 | -82.50266 | 3776 ft | 124 kts | 335° |
| 2026-04-19 21:58 | 35.35625 | -82.50626 | 3616 ft | 120 kts | 337° |
| 2026-04-19 21:59 | 35.36355 | -82.50946 | 3458 ft | 106 kts | 336° |
| 2026-04-19 21:59 | 35.37037 | -82.51257 | 3320 ft | 104 kts | 335° |
| 2026-04-19 21:59 | 35.37726 | -82.51569 | 3178 ft | 107 kts | 336° |
| 2026-04-19 21:59 | 35.38426 | -82.51869 | 3035 ft | 107 kts | 334° |
| 2026-04-19 22:00 | 35.39116 | -82.52193 | 2872 ft | 105 kts | 335° |
| 2026-04-19 22:00 | 35.39796 | -82.52510 | 2738 ft | 105 kts | 336° |
| 2026-04-19 22:00 | 35.40484 | -82.52802 | 2605 ft | 105 kts | 337° |
| 2026-04-19 22:00 | 35.41175 | -82.53106 | 2470 ft | 106 kts | 336° |
| 2026-04-19 22:01 | 35.41868 | -82.53426 | 2337 ft | 107 kts | 337° |
| 2026-04-19 22:01 | 35.42569 | -82.53737 | 2187 ft | 107 kts | 338° |
| 2026-04-19 22:01 | 35.43200 | -82.54023 | 2141 ft | 83 kts | 339° |
| 2026-04-19 22:01 | 35.43535 | -82.54140 | 2148 ft | 22 kts | 24° |
| 2026-04-19 22:02 | 35.43574 | -82.54085 | 2150 ft | 0 kts | 53° |
| 2026-04-19 22:02 | 35.43575 | -82.54084 | 2150 ft | 1 kts | 53° |
| 2026-04-19 22:02 | 35.43629 | -82.54056 | 2152 ft | 15 kts | 35° |
| 2026-04-19 22:02 | 35.43695 | -82.53974 | 2153 ft | 13 kts | 296° |
| 2026-04-19 22:03 | 35.43780 | -82.53968 | 2155 ft | 13 kts | 352° |
| 2026-04-19 22:03 | 35.43849 | -82.53975 | 2157 ft | 7 kts | 354° |
| 2026-04-19 22:03 | 35.43865 | -82.53980 | 2157 ft | 0 kts | 339° |